Time;durP1;ratioP1;P1;durP2;ratioP2;P2;SDS_P1;SDS_P2;PMS_P1;PMS_P2;Temp;Humidity;BMP_temperature;BMP_pressure;BME280_temperature;BME280_humidity;BME280_pressure;Samples;Min_cycle;Max_cycle;Signal;HPM_P1;HPM_P2
2023/03/20 00:01:42;;;;;;;5.70;3.67;;;;;;;;;;5057764;28;20481;-81
2023/03/20 00:04:09;;;;;;;5.43;3.70;;;;;;;;;;5056475;28;20086;-81
2023/03/20 00:06:34;;;;;;;7.88;4.00;;;;;;;;;;5057165;28;20120;-81
2023/03/20 00:09:01;;;;;;;7.18;3.83;;;;;;;;;;5057290;28;20079;-82
2023/03/20 00:11:30;;;;;;;7.43;4.00;;;;;;;;;;5056098;28;20139;-81
2023/03/20 00:13:58;;;;;;;6.53;3.90;;;;;;;;;;5057791;28;20044;-80
2023/03/20 00:16:28;;;;;;;6.30;3.95;;;;;;;;;;5057390;28;20151;-81
2023/03/20 00:18:55;;;;;;;7.50;3.67;;;;;;;;;;5057203;28;20094;-81
2023/03/20 00:21:20;;;;;;;7.25;3.70;;;;;;;;;;5056856;28;20029;-81
2023/03/20 00:23:46;;;;;;;6.53;3.60;;;;;;;;;;5057178;28;20037;-82
2023/03/20 00:26:19;;;;;;;7.50;3.80;;;;;;;;;;5072393;28;20094;-82
2023/03/20 00:28:46;;;;;;;6.47;3.83;;;;;;;;;;5055865;28;20041;-81
2023/03/20 00:31:21;;;;;;;7.32;4.00;;;;;;;;;;5056932;28;20116;-80
2023/03/20 00:33:46;;;;;;;9.27;4.00;;;;;;;;;;5038711;28;20037;-81
2023/03/20 00:36:12;;;;;;;9.00;3.83;;;;;;;;;;5057095;28;20047;-81
2023/03/20 00:38:39;;;;;;;7.05;3.50;;;;;;;;;;5056931;28;20057;-81
2023/03/20 00:41:19;;;;;;;6.30;3.15;;;;;;;;;;5056576;28;20409;-82
2023/03/20 00:43:48;;;;;;;6.80;3.25;;;;;;;;;;5055636;28;20036;-81
2023/03/20 00:46:13;;;;;;;5.22;3.80;;;;;;;;;;5056633;28;20370;-81
2023/03/20 00:48:42;;;;;;;6.78;3.60;;;;;;;;;;5054745;28;20036;-82
2023/03/20 00:51:08;;;;;;;5.55;3.47;;;;;;;;;;5055449;28;20183;-81
2023/03/20 00:53:34;;;;;;;5.50;3.80;;;;;;;;;;5057997;28;20041;-81
2023/03/20 00:55:59;;;;;;;6.47;3.60;;;;;;;;;;5057872;28;20037;-81
2023/03/20 00:58:25;;;;;;;6.20;3.50;;;;;;;;;;5074814;23;20104;-87
2023/03/20 01:00:51;;;;;;;4.70;3.30;;;;;;;;;;5073620;28;20099;-86
2023/03/20 01:03:19;;;;;;;6.72;3.20;;;;;;;;;;5073351;28;20037;-86
2023/03/20 01:05:47;;;;;;;5.55;3.42;;;;;;;;;;5072757;28;20028;-88
2023/03/20 01:08:22;;;;;;;6.00;3.35;;;;;;;;;;5084696;28;20043;-87
2023/03/20 01:10:53;;;;;;;5.10;3.20;;;;;;;;;;5077216;28;20037;-86
2023/03/20 01:13:26;;;;;;;7.05;3.70;;;;;;;;;;5075461;28;20028;-87
2023/03/20 01:15:54;;;;;;;6.93;3.92;;;;;;;;;;5075168;28;20032;-87
2023/03/20 01:18:22;;;;;;;5.50;3.28;;;;;;;;;;5081986;28;20054;-87
2023/03/20 01:20:48;;;;;;;5.80;3.60;;;;;;;;;;5078985;28;20037;-88
2023/03/20 01:23:14;;;;;;;8.23;4.07;;;;;;;;;;5076778;28;20048;-88
2023/03/20 01:25:40;;;;;;;5.53;3.20;;;;;;;;;;5077457;28;20111;-86
2023/03/20 01:28:15;;;;;;;5.22;3.40;;;;;;;;;;5077407;28;20078;-87
2023/03/20 01:30:42;;;;;;;4.22;3.08;;;;;;;;;;5075954;28;20036;-86
2023/03/20 01:33:20;;;;;;;8.55;3.65;;;;;;;;;;5059470;28;20396;-86
2023/03/20 01:35:50;;;;;;;6.55;3.60;;;;;;;;;;5059898;28;20493;-86
2023/03/20 01:38:22;;;;;;;7.60;3.78;;;;;;;;;;5077146;28;20035;-87
2023/03/20 01:41:12;;;;;;;7.68;3.50;;;;;;;;;;5076746;28;20067;-86
2023/03/20 01:43:39;;;;;;;5.95;3.47;;;;;;;;;;5059958;28;20055;-87
2023/03/20 01:46:27;;;;;;;4.30;3.53;;;;;;;;;;5077557;28;20571;-86
2023/03/20 01:49:04;;;;;;;6.47;3.25;;;;;;;;;;5076301;28;20417;-88
2023/03/20 01:51:31;;;;;;;5.45;3.13;;;;;;;;;;5076150;28;20036;-89
2023/03/20 01:54:09;;;;;;;7.13;3.17;;;;;;;;;;5076091;28;20503;-86
2023/03/20 01:56:56;;;;;;;;;;;;;;;;;;5076261;28;20407;-86
2023/03/20 01:59:27;;;;;;;5.88;3.13;;;;;;;;;;5058622;28;19912;-88
2023/03/20 02:01:53;;;;;;;5.45;3.28;;;;;;;;;;5075639;28;20036;-87
2023/03/20 02:04:26;;;;;;;4.97;3.30;;;;;;;;;;5075173;28;20025;-87
2023/03/20 02:06:57;;;;;;;4.25;3.08;;;;;;;;;;5075102;28;20413;-87
2023/03/20 02:09:49;;;;;;;4.45;3.15;;;;;;;;;;5059638;28;20064;-86
2023/03/20 02:12:21;;;;;;;6.65;3.80;;;;;;;;;;5074441;28;20036;-85
2023/03/20 02:14:49;;;;;;;4.55;3.38;;;;;;;;;;5073976;28;20115;-84
2023/03/20 02:17:35;;;;;;;4.47;3.40;;;;;;;;;;5059814;28;20058;-87
2023/03/20 02:20:17;;;;;;;4.53;3.28;;;;;;;;;;5081720;28;20092;-86
2023/03/20 02:23:17;;;;;;;4.72;3.28;;;;;;;;;;5084228;28;20063;-85
2023/03/20 02:26:36;;;;;;;3.90;3.00;;;;;;;;;;5076836;28;20032;-86
2023/03/20 02:29:23;;;;;;;5.47;3.40;;;;;;;;;;5048531;28;20040;-87
2023/03/20 02:32:26;;;;;;;6.00;3.28;;;;;;;;;;5076398;28;20024;-89
2023/03/20 02:35:11;;;;;;;6.57;3.13;;;;;;;;;;5076037;28;20032;-87
2023/03/20 02:37:46;;;;;;;4.20;3.28;;;;;;;;;;5076388;28;20060;-86
2023/03/20 02:40:42;;;;;;;3.75;2.75;;;;;;;;;;5077196;28;20043;-87
2023/03/20 02:43:18;;;;;;;3.72;2.85;;;;;;;;;;5076139;28;20044;-87
2023/03/20 02:46:28;;;;;;;5.03;3.00;;;;;;;;;;5076191;28;20404;-87
2023/03/20 02:49:06;;;;;;;6.40;3.47;;;;;;;;;;5065374;28;20052;-87
2023/03/20 02:51:34;;;;;;;5.35;3.33;;;;;;;;;;5076444;28;20166;-88
2023/03/20 02:54:32;;;;;;;4.82;3.60;;;;;;;;;;5076937;28;20028;-88
2023/03/20 02:57:09;;;;;;;5.90;3.55;;;;;;;;;;5076157;28;20039;-87
2023/03/20 02:59:56;;;;;;;5.00;3.33;;;;;;;;;;5077065;28;20047;-85
2023/03/20 03:03:04;;;;;;;5.20;3.40;;;;;;;;;;5076122;28;20127;-86
2023/03/20 03:05:56;;;;;;;4.95;3.33;;;;;;;;;;5069901;28;20037;-87
2023/03/20 03:08:27;;;;;;;4.07;3.05;;;;;;;;;;5057178;28;20187;-87
2023/03/20 03:11:00;;;;;;;4.28;3.30;;;;;;;;;;5074895;28;20037;-86
2023/03/20 03:13:29;;;;;;;6.63;3.38;;;;;;;;;;5075365;28;20039;-87
2023/03/20 03:16:02;;;;;;;4.90;3.25;;;;;;;;;;5074572;28;20040;-86
2023/03/20 03:18:29;;;;;;;4.43;3.28;;;;;;;;;;5075361;28;20439;-85
2023/03/20 03:20:58;;;;;;;4.32;2.95;;;;;;;;;;5060365;28;20102;-86
2023/03/20 03:23:34;;;;;;;4.43;2.95;;;;;;;;;;5067898;28;20033;-86
2023/03/20 03:26:01;;;;;;;5.32;3.10;;;;;;;;;;5073216;28;20070;-87
2023/03/20 03:28:37;;;;;;;4.05;2.90;;;;;;;;;;5072974;28;20564;-87
2023/03/20 03:31:07;;;;;;;5.85;3.20;;;;;;;;;;5072227;28;20508;-87
2023/03/20 03:33:37;;;;;;;4.60;2.80;;;;;;;;;;5071424;28;20385;-87
2023/03/20 03:36:09;;;;;;;4.82;3.22;;;;;;;;;;5071141;28;20056;-88
2023/03/20 03:39:00;;;;;;;8.32;3.33;;;;;;;;;;5083853;28;20104;-86
2023/03/20 03:41:36;;;;;;;3.95;2.97;;;;;;;;;;5043396;28;20040;-87
2023/03/20 03:44:04;;;;;;;4.78;3.10;;;;;;;;;;5075051;28;20108;-87
2023/03/20 03:46:52;;;;;;;7.60;3.22;;;;;;;;;;5075127;28;20032;-86
2023/03/20 03:49:23;;;;;;;3.95;2.90;;;;;;;;;;5074518;28;20036;-87
2023/03/20 03:51:54;;;;;;;5.03;2.88;;;;;;;;;;5072799;28;20059;-87
2023/03/20 03:54:25;;;;;;;3.60;2.80;;;;;;;;;;5071258;28;20033;-86
2023/03/20 03:57:22;;;;;;;4.00;3.05;;;;;;;;;;5068091;28;20033;-87
2023/03/20 03:59:51;;;;;;;4.88;3.03;;;;;;;;;;5070812;28;20040;-86
2023/03/20 04:02:18;;;;;;;5.07;2.83;;;;;;;;;;5070853;28;20068;-86
2023/03/20 04:04:48;;;;;;;4.32;3.00;;;;;;;;;;5070542;28;20036;-86
2023/03/20 04:07:14;;;;;;;5.10;2.78;;;;;;;;;;5070686;28;20039;-87
2023/03/20 04:09:40;;;;;;;5.43;3.25;;;;;;;;;;5070942;28;20092;-86
2023/03/20 04:12:05;;;;;;;6.68;3.35;;;;;;;;;;5070674;28;20174;-86
2023/03/20 04:14:32;;;;;;;6.75;3.15;;;;;;;;;;5076439;28;20029;-88
2023/03/20 04:16:57;;;;;;;4.28;3.10;;;;;;;;;;5077317;28;20044;-87
2023/03/20 04:19:23;;;;;;;6.32;3.08;;;;;;;;;;5079019;28;20040;-88
2023/03/20 04:21:49;;;;;;;4.82;3.50;;;;;;;;;;5080753;28;20386;-87
2023/03/20 04:24:14;;;;;;;5.28;3.35;;;;;;;;;;5079221;28;20471;-87
2023/03/20 04:26:40;;;;;;;4.50;3.25;;;;;;;;;;5057744;28;20028;-86
2023/03/20 04:29:06;;;;;;;6.43;2.83;;;;;;;;;;5073531;28;20028;-87
2023/03/20 04:31:32;;;;;;;5.18;2.95;;;;;;;;;;5073936;28;20373;-86
2023/03/20 04:34:16;;;;;;;5.03;2.90;;;;;;;;;;5073881;28;20036;-84
2023/03/20 04:37:01;;;;;;;4.95;2.90;;;;;;;;;;5075034;28;20047;-87
2023/03/20 04:39:41;;;;;;;3.42;2.72;;;;;;;;;;5073400;28;20029;-86
2023/03/20 04:42:08;;;;;;;6.43;2.85;;;;;;;;;;5073917;28;20220;-86
2023/03/20 04:44:33;;;;;;;3.63;2.85;;;;;;;;;;5072925;28;20036;-86
2023/03/20 04:47:00;;;;;;;5.07;3.10;;;;;;;;;;5073189;28;20093;-86
2023/03/20 04:49:27;;;;;;;4.25;3.10;;;;;;;;;;5072958;28;20555;-87
2023/03/20 04:51:53;;;;;;;4.63;3.03;;;;;;;;;;5081201;28;20042;-87
2023/03/20 04:54:34;;;;;;;4.15;2.90;;;;;;;;;;5076137;28;20025;-87
2023/03/20 04:57:00;;;;;;;4.88;3.20;;;;;;;;;;5075989;28;20397;-87
2023/03/20 04:59:26;;;;;;;4.05;3.33;;;;;;;;;;5077914;28;20492;-86
2023/03/20 05:01:51;;;;;;;5.93;4.13;;;;;;;;;;5060300;28;20043;-87
2023/03/20 05:04:20;;;;;;;6.43;3.72;;;;;;;;;;5076162;28;20036;-86
2023/03/20 05:06:48;;;;;;;6.07;3.60;;;;;;;;;;5076824;28;20033;-87
2023/03/20 05:09:15;;;;;;;7.50;4.38;;;;;;;;;;5061014;28;20036;-87
2023/03/20 05:11:42;;;;;;;5.22;3.33;;;;;;;;;;5061397;28;20032;-87
2023/03/20 05:14:26;;;;;;;6.03;2.92;;;;;;;;;;5078485;28;20500;-87
2023/03/20 05:17:17;;;;;;;5.50;3.50;;;;;;;;;;5042974;28;20100;-87
2023/03/20 05:20:04;;;;;;;6.90;3.88;;;;;;;;;;5067220;28;20044;-87
2023/03/20 05:22:59;;;;;;;6.68;3.22;;;;;;;;;;5027391;28;20050;-86
2023/03/20 05:25:47;;;;;;;5.05;3.50;;;;;;;;;;5079753;28;20514;-86
2023/03/20 05:28:36;;;;;;;5.43;3.67;;;;;;;;;;5037400;28;20127;-85
2023/03/20 05:31:10;;;;;;;6.63;3.55;;;;;;;;;;5073925;28;20062;-87
2023/03/20 05:33:58;;;;;;;4.88;3.45;;;;;;;;;;5058509;28;20476;-87
2023/03/20 05:36:49;;;;;;;8.35;4.20;;;;;;;;;;5070663;28;20041;-86
2023/03/20 05:39:27;;;;;;;6.80;4.10;;;;;;;;;;5072729;28;20445;-86
2023/03/20 05:42:06;;;;;;;7.65;3.58;;;;;;;;;;5072317;28;20031;-86
2023/03/20 05:45:03;;;;;;;5.38;3.60;;;;;;;;;;5071747;28;20038;-87
2023/03/20 05:47:44;;;;;;;4.50;3.40;;;;;;;;;;5073492;28;20036;-87
2023/03/20 05:50:28;;;;;;;5.10;3.50;;;;;;;;;;5072037;28;20098;-86
2023/03/20 05:52:59;;;;;;;6.03;3.70;;;;;;;;;;5073436;28;20043;-86
2023/03/20 05:55:43;;;;;;;4.72;3.58;;;;;;;;;;5072920;28;20024;-85
2023/03/20 05:58:25;;;;;;;5.80;3.88;;;;;;;;;;5071536;28;20028;-86
2023/03/20 06:01:10;;;;;;;4.57;3.47;;;;;;;;;;5073088;28;20512;-85
2023/03/20 06:04:02;;;;;;;7.80;3.75;;;;;;;;;;5072112;28;20032;-89
2023/03/20 06:06:58;;;;;;;6.35;3.90;;;;;;;;;;5082820;28;20043;-88
2023/03/20 06:09:24;;;;;;;10.38;3.92;;;;;;;;;;5061194;28;20080;-88
2023/03/20 06:11:49;;;;;;;7.95;4.00;;;;;;;;;;5075140;28;20044;-87
2023/03/20 06:14:16;;;;;;;6.85;4.45;;;;;;;;;;5074197;28;20071;-87
2023/03/20 06:16:46;;;;;;;5.53;3.40;;;;;;;;;;5073594;28;20070;-87
2023/03/20 06:19:12;;;;;;;4.25;2.67;;;;;;;;;;5073912;28;20040;-86
2023/03/20 06:21:39;;;;;;;3.95;2.50;;;;;;;;;;5074557;28;20029;-87
2023/03/20 06:24:08;;;;;;;3.67;2.33;;;;;;;;;;5057712;28;20029;-86
2023/03/20 06:26:34;;;;;;;3.50;2.10;;;;;;;;;;5063645;28;20123;-87
2023/03/20 06:29:03;;;;;;;3.15;1.95;;;;;;;;;;5074350;28;20412;-87
2023/03/20 06:31:30;;;;;;;4.13;1.70;;;;;;;;;;5073278;28;20055;-85
2023/03/20 06:33:56;;;;;;;2.20;1.67;;;;;;;;;;5073907;28;20496;-88
2023/03/20 06:36:22;;;;;;;4.93;2.20;;;;;;;;;;5075382;28;20451;-88
2023/03/20 06:38:55;;;;;;;3.95;2.33;;;;;;;;;;5072617;28;20072;-87
2023/03/20 06:41:21;;;;;;;2.97;1.90;;;;;;;;;;5071968;28;20512;-87
2023/03/20 06:43:47;;;;;;;2.78;1.95;;;;;;;;;;5072089;28;20577;-88
2023/03/20 06:46:12;;;;;;;5.20;3.10;;;;;;;;;;5071531;28;20062;-87
2023/03/20 06:48:38;;;;;;;4.10;2.30;;;;;;;;;;5072178;28;20416;-87
2023/03/20 06:51:06;;;;;;;2.17;1.25;;;;;;;;;;5054720;28;20064;-86
2023/03/20 06:53:38;;;;;;;1.80;1.30;;;;;;;;;;5070937;28;20024;-87
2023/03/20 06:56:07;;;;;;;2.75;1.98;;;;;;;;;;5070760;28;20071;-86
2023/03/20 06:58:33;;;;;;;5.05;2.47;;;;;;;;;;5072557;28;20060;-88
2023/03/20 07:00:58;;;;;;;4.40;2.40;;;;;;;;;;5078821;23;20045;-82
2023/03/20 07:03:24;;;;;;;6.80;3.67;;;;;;;;;;5053029;28;20036;-82
2023/03/20 07:05:51;;;;;;;4.07;2.40;;;;;;;;;;5052803;28;20048;-82
2023/03/20 07:08:17;;;;;;;5.20;2.95;;;;;;;;;;5052479;28;20040;-81
2023/03/20 07:10:43;;;;;;;9.57;4.50;;;;;;;;;;5052760;28;20103;-81
2023/03/20 07:13:09;;;;;;;7.93;4.40;;;;;;;;;;5052918;28;20090;-80
2023/03/20 07:15:37;;;;;;;6.22;3.60;;;;;;;;;;5052200;28;20116;-81
2023/03/20 07:18:03;;;;;;;8.18;4.25;;;;;;;;;;5053044;28;20455;-79
2023/03/20 07:20:30;;;;;;;4.40;2.63;;;;;;;;;;5052914;28;20440;-81
2023/03/20 07:22:56;;;;;;;1.80;1.40;;;;;;;;;;5052629;28;20158;-82
2023/03/20 07:25:24;;;;;;;2.00;1.45;;;;;;;;;;5053085;28;20052;-84
2023/03/20 07:27:50;;;;;;;2.33;1.10;;;;;;;;;;5054043;28;20055;-82
2023/03/20 07:30:19;;;;;;;3.40;1.20;;;;;;;;;;5052931;28;20025;-81
2023/03/20 07:32:47;;;;;;;3.03;2.20;;;;;;;;;;5054036;28;20040;-82
2023/03/20 07:35:12;;;;;;;1.95;1.60;;;;;;;;;;5054210;28;20528;-83
2023/03/20 07:37:40;;;;;;;5.20;1.45;;;;;;;;;;5052934;28;20076;-81
2023/03/20 07:40:07;;;;;;;4.30;2.20;;;;;;;;;;5053261;28;20762;-83
2023/03/20 07:42:46;;;;;;;4.47;2.58;;;;;;;;;;5039242;28;20040;-83
2023/03/20 07:45:23;;;;;;;4.30;1.90;;;;;;;;;;5053534;28;20057;-82
2023/03/20 07:47:50;;;;;;;2.28;1.48;;;;;;;;;;5053960;28;20041;-82
2023/03/20 07:50:16;;;;;;;2.63;1.00;;;;;;;;;;5053897;28;20029;-83
2023/03/20 07:52:48;;;;;;;2.13;1.00;;;;;;;;;;5053039;28;20065;-82
2023/03/20 07:55:15;;;;;;;1.00;0.90;;;;;;;;;;5052030;28;20481;-80
2023/03/20 07:57:42;;;;;;;3.78;1.30;;;;;;;;;;5053137;28;20083;-81
2023/03/20 08:00:08;;;;;;;1.92;1.00;;;;;;;;;;5058013;28;20401;-81
2023/03/20 08:02:37;;;;;;;1.40;1.00;;;;;;;;;;5057511;28;20093;-81
2023/03/20 08:05:03;;;;;;;1.02;0.80;;;;;;;;;;5058450;28;20045;-82
2023/03/20 08:07:28;;;;;;;1.70;0.90;;;;;;;;;;5058270;28;20098;-82
2023/03/20 08:09:54;;;;;;;1.35;0.90;;;;;;;;;;5057348;28;20044;-82
2023/03/20 08:12:20;;;;;;;3.25;1.10;;;;;;;;;;5055164;28;20048;-84
2023/03/20 08:14:46;;;;;;;1.27;0.90;;;;;;;;;;5056910;28;20497;-82
2023/03/20 08:17:12;;;;;;;0.82;0.70;;;;;;;;;;5057331;28;20037;-82
2023/03/20 08:19:37;;;;;;;1.77;0.90;;;;;;;;;;5057892;28;20036;-81
2023/03/20 08:22:03;;;;;;;1.17;0.82;;;;;;;;;;5058965;28;20405;-83
2023/03/20 08:24:28;;;;;;;1.50;0.80;;;;;;;;;;5057974;28;20211;-82
2023/03/20 08:26:54;;;;;;;6.30;3.45;;;;;;;;;;5058793;28;20072;-83
2023/03/20 08:29:20;;;;;;;5.97;3.47;;;;;;;;;;5056127;28;20044;-83
2023/03/20 08:31:45;;;;;;;3.45;2.20;;;;;;;;;;5059610;28;20059;-81
2023/03/20 08:34:11;;;;;;;4.30;2.20;;;;;;;;;;5057596;28;20037;-82
2023/03/20 08:36:38;;;;;;;5.80;2.58;;;;;;;;;;5058290;28;20028;-83
2023/03/20 08:39:05;;;;;;;3.60;2.10;;;;;;;;;;5049659;28;20485;-82
2023/03/20 08:41:32;;;;;;;3.63;2.47;;;;;;;;;;5048432;28;20124;-82
2023/03/20 08:43:57;;;;;;;7.82;4.57;;;;;;;;;;5047147;28;20128;-82
2023/03/20 08:46:23;;;;;;;14.13;8.75;;;;;;;;;;5049760;28;20069;-83
2023/03/20 08:48:48;;;;;;;22.60;12.60;;;;;;;;;;5047846;28;20124;-82
2023/03/20 08:51:14;;;;;;;13.73;8.73;;;;;;;;;;5061796;28;20041;-82
2023/03/20 08:53:39;;;;;;;8.52;5.55;;;;;;;;;;5047586;28;20037;-82
2023/03/20 08:56:06;;;;;;;8.82;5.47;;;;;;;;;;5045578;28;20039;-81
2023/03/20 08:58:31;;;;;;;5.50;4.15;;;;;;;;;;5047976;28;20111;-82
2023/03/20 09:01:01;;;;;;;4.38;3.00;;;;;;;;;;5045727;28;20072;-82
2023/03/20 09:03:27;;;;;;;4.90;3.00;;;;;;;;;;5046418;28;20037;-83
2023/03/20 09:05:53;;;;;;;3.80;2.70;;;;;;;;;;5047702;28;20046;-83
2023/03/20 09:08:18;;;;;;;5.68;3.33;;;;;;;;;;5045965;28;20119;-80
2023/03/20 09:10:46;;;;;;;3.35;2.50;;;;;;;;;;5045553;28;20034;-82
2023/03/20 09:13:12;;;;;;;3.33;2.25;;;;;;;;;;5048942;28;20110;-81
2023/03/20 09:15:37;;;;;;;3.78;2.47;;;;;;;;;;5045351;28;20486;-81
2023/03/20 09:18:03;;;;;;;4.68;2.70;;;;;;;;;;5047122;28;20105;-82
2023/03/20 09:20:28;;;;;;;2.83;2.13;;;;;;;;;;5050836;28;20040;-82
2023/03/20 09:22:55;;;;;;;3.58;1.77;;;;;;;;;;5046193;28;20037;-82
2023/03/20 09:25:20;;;;;;;2.67;1.90;;;;;;;;;;5047130;28;20033;-82
2023/03/20 09:27:49;;;;;;;2.70;1.92;;;;;;;;;;5045875;28;20033;-82
2023/03/20 09:30:15;;;;;;;4.38;2.30;;;;;;;;;;5047257;28;20076;-82
2023/03/20 09:32:40;;;;;;;3.95;2.10;;;;;;;;;;5044878;28;20060;-81
2023/03/20 09:35:06;;;;;;;2.63;1.98;;;;;;;;;;5046043;28;20079;-81
2023/03/20 09:37:32;;;;;;;3.55;1.98;;;;;;;;;;5050602;28;20059;-82
2023/03/20 09:39:57;;;;;;;4.70;1.75;;;;;;;;;;5052695;28;20398;-82
2023/03/20 09:42:34;;;;;;;2.70;1.70;;;;;;;;;;5052994;28;20619;-82
2023/03/20 09:45:09;;;;;;;2.10;1.60;;;;;;;;;;5048391;28;20040;-83
2023/03/20 09:48:00;;;;;;;2.97;1.50;;;;;;;;;;5050816;28;20038;-83
2023/03/20 09:51:21;;;;;;;1.77;1.30;;;;;;;;;;5046133;28;20029;-82
2023/03/20 09:53:53;;;;;;;1.60;1.30;;;;;;;;;;5005495;28;20069;-81
2023/03/20 09:56:23;;;;;;;1.98;1.30;;;;;;;;;;5051311;28;20569;-83
2023/03/20 09:59:03;;;;;;;1.50;1.30;;;;;;;;;;5045364;28;20037;-82
2023/03/20 10:01:47;;;;;;;2.50;1.90;;;;;;;;;;5043098;28;20557;-82
2023/03/20 10:04:13;;;;;;;2.30;1.80;;;;;;;;;;5052700;28;20086;-82
2023/03/20 10:06:39;;;;;;;2.88;2.15;;;;;;;;;;5043782;28;20021;-83
2023/03/20 10:09:24;;;;;;;2.53;1.92;;;;;;;;;;5045859;28;20064;-81
2023/03/20 10:12:14;;;;;;;3.53;2.50;;;;;;;;;;5046211;28;20040;-81
2023/03/20 10:15:09;;;;;;;3.20;1.90;;;;;;;;;;5045599;28;20044;-82
2023/03/20 10:17:53;;;;;;;9.32;3.45;;;;;;;;;;5033233;28;20076;-82
2023/03/20 10:20:30;;;;;;;2.55;1.90;;;;;;;;;;5046116;28;20041;-82
2023/03/20 10:23:12;;;;;;;5.07;2.90;;;;;;;;;;5044856;28;20068;-82
2023/03/20 10:25:47;;;;;;;5.68;3.80;;;;;;;;;;5042796;28;20029;-82
2023/03/20 10:28:19;;;;;;;10.52;6.70;;;;;;;;;;5027174;28;20041;-81
2023/03/20 10:31:11;;;;;;;6.65;4.15;;;;;;;;;;5045747;28;20036;-82
2023/03/20 10:33:45;;;;;;;1.60;1.13;;;;;;;;;;5046686;28;20040;-81
2023/03/20 10:36:50;;;;;;;2.95;1.00;;;;;;;;;;5044351;28;20061;-81
2023/03/20 10:39:32;;;;;;;1.55;1.00;;;;;;;;;;5045672;28;20037;-80
2023/03/20 10:42:01;;;;;;;1.38;1.08;;;;;;;;;;5044970;28;20033;-82
2023/03/20 10:44:39;;;;;;;8.90;5.65;;;;;;;;;;5026158;28;20048;-81
2023/03/20 10:47:10;;;;;;;3.55;1.50;;;;;;;;;;5042883;28;20041;-83
2023/03/20 10:49:40;;;;;;;3.78;2.90;;;;;;;;;;5045673;28;20060;-81
2023/03/20 10:52:15;;;;;;;2.35;1.67;;;;;;;;;;5046243;28;20048;-81
2023/03/20 10:54:47;;;;;;;2.67;0.90;;;;;;;;;;5044083;28;20086;-81
2023/03/20 10:57:24;;;;;;;1.60;1.00;;;;;;;;;;5043841;28;20510;-80
2023/03/20 10:59:51;;;;;;;1.00;0.80;;;;;;;;;;5045542;28;20092;-81
2023/03/20 11:02:19;;;;;;;1.70;1.00;;;;;;;;;;5044950;28;20497;-81
2023/03/20 11:04:45;;;;;;;0.88;0.80;;;;;;;;;;5038111;28;20029;-82
2023/03/20 11:07:10;;;;;;;0.90;0.80;;;;;;;;;;5050714;28;20032;-82
2023/03/20 11:09:36;;;;;;;0.95;0.60;;;;;;;;;;5050234;28;20029;-79
2023/03/20 11:12:03;;;;;;;1.38;0.93;;;;;;;;;;5051993;28;20126;-81
2023/03/20 11:14:37;;;;;;;1.23;0.80;;;;;;;;;;5053906;28;20041;-82
2023/03/20 11:17:05;;;;;;;0.65;0.52;;;;;;;;;;5053507;28;20029;-80
2023/03/20 11:19:36;;;;;;;1.20;0.90;;;;;;;;;;5055527;28;20024;-82
2023/03/20 11:22:28;;;;;;;0.82;0.70;;;;;;;;;;5053954;28;20396;-82
2023/03/20 11:24:57;;;;;;;0.75;0.68;;;;;;;;;;5051661;28;20061;-82
2023/03/20 11:27:31;;;;;;;3.95;0.63;;;;;;;;;;5056471;28;20029;-82
2023/03/20 11:30:01;;;;;;;2.53;1.77;;;;;;;;;;5055867;28;20447;-84
2023/03/20 11:33:02;;;;;;;2.63;1.60;;;;;;;;;;5056704;28;20029;-83
2023/03/20 11:35:30;;;;;;;2.47;1.05;;;;;;;;;;5037610;28;20043;-83
2023/03/20 11:38:18;;;;;;;0.60;0.60;;;;;;;;;;5065806;28;20033;-84
2023/03/20 11:40:46;;;;;;;2.25;0.70;;;;;;;;;;5066265;28;20097;-83
2023/03/20 11:43:20;;;;;;;3.65;1.80;;;;;;;;;;5067051;28;20535;-83
2023/03/20 11:46:00;;;;;;;3.00;1.70;;;;;;;;;;5066010;28;20044;-84
2023/03/20 11:48:36;;;;;;;3.47;0.68;;;;;;;;;;5069765;28;20033;-86
2023/03/20 11:51:22;;;;;;;0.90;0.70;;;;;;;;;;5070192;28;20032;-85
2023/03/20 11:53:47;;;;;;;1.63;1.00;;;;;;;;;;5070786;28;20104;-86
2023/03/20 11:56:20;;;;;;;1.42;1.10;;;;;;;;;;5058658;28;20067;-85
2023/03/20 11:58:55;;;;;;;1.10;0.90;;;;;;;;;;5058470;28;20059;-84
2023/03/20 12:01:21;;;;;;;1.88;1.00;;;;;;;;;;5057658;28;20121;-83
2023/03/20 12:03:57;;;;;;;1.70;1.13;;;;;;;;;;5059190;28;20040;-83
2023/03/20 12:06:36;;;;;;;1.58;1.20;;;;;;;;;;5060185;28;20473;-85
2023/03/20 12:09:08;;;;;;;1.40;1.20;;;;;;;;;;5059499;28;20040;-83
2023/03/20 12:11:42;;;;;;;1.80;1.48;;;;;;;;;;5057172;28;20528;-84
2023/03/20 12:14:20;;;;;;;2.08;1.23;;;;;;;;;;5058252;28;20037;-84
2023/03/20 12:16:48;;;;;;;2.00;1.35;;;;;;;;;;5058757;28;20588;-84
2023/03/20 12:19:36;;;;;;;1.65;1.30;;;;;;;;;;5040740;28;20044;-83
2023/03/20 12:22:20;;;;;;;3.45;1.50;;;;;;;;;;5058100;28;20025;-84
2023/03/20 12:25:09;;;;;;;2.40;1.40;;;;;;;;;;5058722;28;20112;-84
2023/03/20 12:27:46;;;;;;;2.35;1.40;;;;;;;;;;5059037;28;20036;-84
2023/03/20 12:30:18;;;;;;;1.65;1.50;;;;;;;;;;5059098;28;20029;-85
2023/03/20 12:33:05;;;;;;;1.63;1.42;;;;;;;;;;5059277;28;20037;-84
2023/03/20 12:35:36;;;;;;;3.63;1.60;;;;;;;;;;5057219;28;20190;-85
2023/03/20 12:38:04;;;;;;;2.80;1.63;;;;;;;;;;5058798;28;20044;-84
2023/03/20 12:40:42;;;;;;;3.65;1.48;;;;;;;;;;5057734;28;20025;-84
2023/03/20 12:43:19;;;;;;;2.00;1.58;;;;;;;;;;5058526;28;20041;-84
2023/03/20 12:46:08;;;;;;;2.22;1.60;;;;;;;;;;5039738;28;20044;-83
2023/03/20 12:49:00;;;;;;;2.85;1.60;;;;;;;;;;5056101;28;20037;-83
2023/03/20 12:51:40;;;;;;;3.28;1.42;;;;;;;;;;5056794;28;20033;-84
2023/03/20 12:54:19;;;;;;;2.13;1.50;;;;;;;;;;5056791;28;20032;-84
2023/03/20 12:57:08;;;;;;;2.30;1.40;;;;;;;;;;5057132;28;20033;-84
2023/03/20 12:59:36;;;;;;;3.88;1.60;;;;;;;;;;5019531;28;20040;-83
2023/03/20 13:02:29;;;;;;;2.22;1.50;;;;;;;;;;5057864;28;20047;-84
2023/03/20 13:05:17;;;;;;;2.67;1.70;;;;;;;;;;5056224;28;20053;-85
2023/03/20 13:07:52;;;;;;;1.88;1.50;;;;;;;;;;5040971;28;20100;-85
2023/03/20 13:10:27;;;;;;;3.47;1.70;;;;;;;;;;5056164;28;20471;-85
2023/03/20 13:13:15;;;;;;;1.80;1.50;;;;;;;;;;5056904;28;20037;-82
2023/03/20 13:15:41;;;;;;;3.22;1.38;;;;;;;;;;5057724;28;20044;-83
2023/03/20 13:18:09;;;;;;;2.03;1.50;;;;;;;;;;5056518;28;20029;-84
2023/03/20 13:20:51;;;;;;;3.45;1.55;;;;;;;;;;5056636;28;20028;-83
2023/03/20 13:23:26;;;;;;;2.42;1.50;;;;;;;;;;5057900;28;20401;-83
2023/03/20 13:26:24;;;;;;;1.80;1.40;;;;;;;;;;5056617;28;20481;-81
2023/03/20 13:29:11;;;;;;;2.90;1.48;;;;;;;;;;5033386;28;20409;-83
2023/03/20 13:31:46;;;;;;;2.10;1.60;;;;;;;;;;5055472;28;20041;-81
2023/03/20 13:34:31;;;;;;;5.38;1.60;;;;;;;;;;5056025;28;20048;-83
2023/03/20 13:37:16;;;;;;;3.15;1.50;;;;;;;;;;5057905;28;20041;-83
2023/03/20 13:39:58;;;;;;;3.03;2.10;;;;;;;;;;5071908;22;20025;-86
2023/03/20 13:42:37;;;;;;;4.47;2.38;;;;;;;;;;5074096;28;20036;-84
2023/03/20 13:45:13;;;;;;;3.13;2.10;;;;;;;;;;5073370;28;20024;-85
2023/03/20 13:47:39;;;;;;;5.28;1.80;;;;;;;;;;5074101;28;20475;-84
2023/03/20 13:50:08;;;;;;;3.13;1.50;;;;;;;;;;5074692;28;20123;-83
2023/03/20 13:52:43;;;;;;;2.10;1.50;;;;;;;;;;5075187;28;20051;-84
2023/03/20 13:55:24;;;;;;;2.88;1.50;;;;;;;;;;5075029;28;20056;-85
2023/03/20 13:58:08;;;;;;;2.45;1.60;;;;;;;;;;5073582;28;20489;-83
2023/03/20 14:00:50;;;;;;;2.20;1.60;;;;;;;;;;5073601;28;20040;-86
2023/03/20 14:03:19;;;;;;;2.63;1.60;;;;;;;;;;5073659;28;20103;-85
2023/03/20 14:05:46;;;;;;;4.20;1.58;;;;;;;;;;5074237;28;20405;-86
2023/03/20 14:08:27;;;;;;;2.28;1.30;;;;;;;;;;5059134;28;20033;-87
2023/03/20 14:11:12;;;;;;;1.55;1.30;;;;;;;;;;5075398;28;20085;-86
2023/03/20 14:13:42;;;;;;;2.13;1.50;;;;;;;;;;5076854;28;20447;-85
2023/03/20 14:16:10;;;;;;;1.65;1.38;;;;;;;;;;5075474;28;20039;-84
2023/03/20 14:18:36;;;;;;;2.50;1.48;;;;;;;;;;5077120;28;20107;-84
2023/03/20 14:21:10;;;;;;;4.00;1.50;;;;;;;;;;5077086;28;20032;-84
2023/03/20 14:23:40;;;;;;;3.42;1.55;;;;;;;;;;5057990;28;20039;-84
2023/03/20 14:26:28;;;;;;;2.88;1.45;;;;;;;;;;5076681;28;20033;-85
2023/03/20 14:28:59;;;;;;;2.13;1.70;;;;;;;;;;5076884;28;20046;-83
2023/03/20 14:31:36;;;;;;;2.03;1.50;;;;;;;;;;5077497;28;20032;-84
2023/03/20 14:34:10;;;;;;;3.08;1.58;;;;;;;;;;5078040;28;20047;-85
2023/03/20 14:36:58;;;;;;;4.25;2.22;;;;;;;;;;5061102;28;20036;-86
2023/03/20 14:39:57;;;;;;;4.70;1.63;;;;;;;;;;5073944;28;20093;-85
2023/03/20 14:42:46;;;;;;;4.43;1.50;;;;;;;;;;5076948;28;20036;-87
2023/03/20 14:45:12;;;;;;;2.10;1.60;;;;;;;;;;5075630;28;20047;-86
2023/03/20 14:47:40;;;;;;;2.88;1.75;;;;;;;;;;5077391;28;20028;-85
2023/03/20 14:50:09;;;;;;;2.47;1.70;;;;;;;;;;5076570;28;20037;-86
2023/03/20 14:52:43;;;;;;;7.28;4.70;;;;;;;;;;5075220;28;20040;-85
2023/03/20 14:55:23;;;;;;;4.18;1.67;;;;;;;;;;5076240;28;20056;-86
2023/03/20 14:57:49;;;;;;;1.95;1.45;;;;;;;;;;5073900;28;20105;-85
2023/03/20 15:00:28;;;;;;;55.20;31.75;;;;;;;;;;5058919;28;20123;-86
2023/03/20 15:03:15;;;;;;;11.27;7.63;;;;;;;;;;5058156;28;20476;-85
2023/03/20 15:05:42;;;;;;;16.75;8.18;;;;;;;;;;5057829;28;20044;-85
2023/03/20 15:08:23;;;;;;;25.88;10.55;;;;;;;;;;5076919;28;20045;-84
2023/03/20 15:10:53;;;;;;;11.73;6.28;;;;;;;;;;5078034;28;20113;-86
2023/03/20 15:13:19;;;;;;;3.97;1.80;;;;;;;;;;5077686;28;20028;-85
2023/03/20 15:15:57;;;;;;;2.35;1.50;;;;;;;;;;5077916;28;20036;-83
2023/03/20 15:18:25;;;;;;;2.17;1.52;;;;;;;;;;5076575;28;20064;-85
2023/03/20 15:20:52;;;;;;;2.38;1.60;;;;;;;;;;5076288;28;20032;-85
2023/03/20 15:23:17;;;;;;;1.92;1.42;;;;;;;;;;5075487;28;20033;-87